PWSweather.com
Personal Weather Stations
Station Observations
MAHIABEACH
Mahia Beach, Mahia Peninsula Hawkes Bay -NZ 4108

Mahia BeachMahia Peninsula Hawkes Bay -NZ 4108

Lat: -39.087594, Lon: 177.87261128

Elevation: 20

Station Type: ScientificSales WS1093

http://wairoa.net/mahia/index.htm

Latest ConditionsUpdated 5:30:05 AM GMT+12:12 Thursday, Sep 18, 2014
Currently Today's Max Today's Min Today's Average
Temperature 41.9°F5.5°C 52.7°F11.5°C 41.9°F5.5°C 47.2°F8.4°C
Dew Point 41.6°F5.3°C 49.4°F9.7°C 41.6°F5.3°C 45.9°F7.7°C
Winds 0.4 mph E0.6 kmh E 2.6 mph SW4.2 kmh SW - 0.8 mph 1.3 kmh
Wind Gusts 2.2 mph3.5 kmh 7.6 mph12.2 kmh - -
Humidity 99% 99% 87% 96%
Pressure 29.96 in1014.6 mb 29.96 in1014.6 mb 29.92 in1013.2 mb -
Hour Temp Dew Point Humidity Winds Wind Gusts Pressure Precip Precip Rate Daily Precip Total
05:30 AM 41.9°F5.5°C 41.6°F5.3°C 99% 0.4 mph E0.6 kmh E 2.2 mph3.5 kmh 29.96 in1014.6 mb 0.00 in0.0 mm 0.00 in/hr0.0 mm/hr 0.00 in0.0 mm
05:15 AM 42.4°F5.8°C 42.2°F5.7°C 99% 0.2 mph E0.3 kmh E 1.6 mph2.6 kmh 29.96 in1014.6 mb 0.00 in0.0 mm 0.00 in/hr0.0 mm/hr 0.00 in0.0 mm
05:00 AM 42.8°F6.0°C 42.5°F5.8°C 99% 0.2 mph E0.3 kmh E 3.1 mph5.0 kmh 29.95 in1014.2 mb 0.00 in0.0 mm 0.00 in/hr0.0 mm/hr 0.00 in0.0 mm
04:45 AM 43.3°F6.3°C 43.1°F6.2°C 99% 0.2 mph ENE0.3 kmh ENE 2.2 mph3.5 kmh 29.95 in1014.2 mb 0.00 in0.0 mm 0.00 in/hr0.0 mm/hr 0.00 in0.0 mm
04:30 AM 43.9°F6.6°C 43.6°F6.4°C 99% 0.1 mph E0.2 kmh E 1.6 mph2.6 kmh 29.95 in1014.2 mb 0.00 in0.0 mm 0.00 in/hr0.0 mm/hr 0.00 in0.0 mm
04:15 AM 44.2°F6.8°C 44.0°F6.7°C 99% 0.2 mph E0.3 kmh E 2.2 mph3.5 kmh 29.94 in1013.9 mb 0.00 in0.0 mm 0.00 in/hr0.0 mm/hr 0.00 in0.0 mm
04:00 AM 44.4°F6.9°C 44.2°F6.8°C 99% 0.3 mph NE0.5 kmh NE 2.2 mph3.5 kmh 29.94 in1013.9 mb 0.00 in0.0 mm 0.00 in/hr0.0 mm/hr 0.00 in0.0 mm
03:45 AM 45.1°F7.3°C 44.9°F7.2°C 99% 0.3 mph NE0.5 kmh NE 3.1 mph5.0 kmh 29.94 in1013.9 mb 0.00 in0.0 mm 0.00 in/hr0.0 mm/hr 0.00 in0.0 mm
03:30 AM 45.5°F7.5°C 45.2°F7.3°C 99% 1.3 mph E2.1 kmh E 3.8 mph6.1 kmh 29.93 in1013.5 mb 0.00 in0.0 mm 0.00 in/hr0.0 mm/hr 0.00 in0.0 mm
03:15 AM 46.8°F8.2°C 46.5°F8.1°C 99% 1.0 mph E1.6 kmh E 6.0 mph9.7 kmh 29.93 in1013.5 mb 0.00 in0.0 mm 0.00 in/hr0.0 mm/hr 0.00 in0.0 mm
03:00 AM 45.7°F7.6°C 45.4°F7.4°C 99% 0.8 mph SE1.3 kmh SE 3.8 mph6.1 kmh 29.93 in1013.5 mb 0.00 in0.0 mm 0.00 in/hr0.0 mm/hr 0.00 in0.0 mm
02:45 AM 45.3°F7.4°C 45.1°F7.3°C 99% 0.7 mph E1.1 kmh E 3.1 mph5.0 kmh 29.93 in1013.5 mb 0.00 in0.0 mm 0.00 in/hr0.0 mm/hr 0.00 in0.0 mm
02:30 AM 46.0°F7.8°C 45.8°F7.7°C 99% 0.5 mph ENE0.8 kmh ENE 2.2 mph3.5 kmh 29.93 in1013.5 mb 0.00 in0.0 mm 0.00 in/hr0.0 mm/hr 0.00 in0.0 mm
02:15 AM 46.6°F8.1°C 46.3°F7.9°C 99% 0.7 mph E1.1 kmh E 3.1 mph5.0 kmh 29.93 in1013.5 mb 0.00 in0.0 mm 0.00 in/hr0.0 mm/hr 0.00 in0.0 mm
02:00 AM 47.1°F8.4°C 46.9°F8.3°C 99% 0.5 mph E0.8 kmh E 3.1 mph5.0 kmh 29.92 in1013.2 mb 0.00 in0.0 mm 0.00 in/hr0.0 mm/hr 0.00 in0.0 mm
01:45 AM 48.6°F9.2°C 47.2°F8.4°C 95% 0.8 mph ENE1.3 kmh ENE 3.1 mph5.0 kmh 29.93 in1013.5 mb 0.00 in0.0 mm 0.00 in/hr0.0 mm/hr 0.00 in0.0 mm
01:30 AM 51.3°F10.7°C 48.7°F9.3°C 91% 0.5 mph WSW0.8 kmh WSW 3.8 mph6.1 kmh 29.93 in1013.5 mb 0.00 in0.0 mm 0.00 in/hr0.0 mm/hr 0.00 in0.0 mm
01:15 AM 52.0°F11.1°C 49.4°F9.7°C 91% 1.8 mph NW2.9 kmh NW 5.4 mph8.7 kmh 29.94 in1013.9 mb 0.00 in0.0 mm 0.00 in/hr0.0 mm/hr 0.00 in0.0 mm
01:00 AM 52.2°F11.2°C 48.4°F9.1°C 87% 0.9 mph SW1.4 kmh SW 6.9 mph11.1 kmh 29.94 in1013.9 mb 0.00 in0.0 mm 0.00 in/hr0.0 mm/hr 0.00 in0.0 mm
12:45 AM 52.3°F11.3°C 48.6°F9.2°C 87% 1.9 mph SW3.1 kmh SW 6.9 mph11.1 kmh 29.94 in1013.9 mb 0.00 in0.0 mm 0.00 in/hr0.0 mm/hr 0.00 in0.0 mm
12:30 AM 52.3°F11.3°C 48.6°F9.2°C 87% 1.1 mph W1.8 kmh W 4.5 mph7.2 kmh 29.93 in1013.5 mb 0.00 in0.0 mm 0.00 in/hr0.0 mm/hr 0.00 in0.0 mm
12:15 AM 52.5°F11.4°C 48.8°F9.3°C 87% 2.6 mph SW4.2 kmh SW 7.6 mph12.2 kmh 29.93 in1013.5 mb 0.00 in0.0 mm 0.00 in/hr0.0 mm/hr 0.00 in0.0 mm
12:00 AM 52.7°F11.5°C 49.3°F9.6°C 88% 2.0 mph WNW3.2 kmh WNW 6.9 mph11.1 kmh 29.93 in1013.5 mb 0.00 in0.0 mm 0.00 in/hr0.0 mm/hr 0.00 in0.0 mm